Time;durP1;ratioP1;P1;durP2;ratioP2;P2;SDS_P1;SDS_P2;PMS_P1;PMS_P2;Temp;Humidity;BMP_temperature;BMP_pressure;BME280_temperature;BME280_humidity;BME280_pressure;Samples;Min_cycle;Max_cycle;Signal;HPM_P1;HPM_P2
2024/01/16 00:00:17;;;;;;;5.72;2.75;;;;;;;-1.06;100.00;99525.19;7395237;19;20029;-68
2024/01/16 00:02:46;;;;;;;4.55;2.92;;;;;;;-1.05;100.00;99524.34;7395087;19;20018;-68
2024/01/16 00:05:14;;;;;;;7.30;3.30;;;;;;;-1.07;100.00;99519.19;7394819;19;20086;-68
2024/01/16 00:07:42;;;;;;;6.38;3.47;;;;;;;-1.06;100.00;99527.75;7393032;19;20518;-69
2024/01/16 00:10:11;;;;;;;7.07;4.05;;;;;;;-1.09;100.00;99535.47;7395691;19;20035;-69
2024/01/16 00:12:40;;;;;;;11.23;5.68;;;;;;;-1.09;100.00;99535.47;7394317;19;20494;-69
2024/01/16 00:15:09;;;;;;;7.18;4.72;;;;;;;-1.09;100.00;99532.91;7395001;19;20032;-69
2024/01/16 00:17:40;;;;;;;9.68;5.22;;;;;;;-1.09;100.00;99535.47;7395038;19;20015;-68
2024/01/16 00:20:10;;;;;;;10.80;6.38;;;;;;;-1.09;100.00;99536.31;7402380;19;20415;-69
2024/01/16 00:22:39;;;;;;;11.48;6.95;;;;;;;-1.08;100.00;99539.78;7401675;19;20006;-68
2024/01/16 00:25:09;;;;;;;10.20;6.57;;;;;;;-1.10;100.00;99534.63;7402225;19;20014;-69
2024/01/16 00:27:37;;;;;;;12.95;6.63;;;;;;;-1.05;100.00;99550.09;7401907;19;20002;-68
2024/01/16 00:30:07;;;;;;;12.45;6.65;;;;;;;-1.03;100.00;99550.97;7401777;19;20419;-68
2024/01/16 00:32:45;;;;;;;13.70;7.93;;;;;;;-1.02;100.00;99560.41;7401863;19;20007;-68
2024/01/16 00:35:13;;;;;;;12.30;7.32;;;;;;;-1.01;100.00;99552.69;7401570;19;20078;-69
2024/01/16 00:37:42;;;;;;;11.38;6.93;;;;;;;-1.01;100.00;99562.13;7400172;19;20086;-69
2024/01/16 00:40:11;;;;;;;13.73;7.70;;;;;;;-0.97;100.00;99569.03;7406087;19;20588;-70
2024/01/16 00:42:39;;;;;;;12.98;7.10;;;;;;;-0.99;100.00;99563.00;7401390;19;20010;-70
2024/01/16 00:45:09;;;;;;;11.73;7.97;;;;;;;-0.95;100.00;99564.72;7401145;19;20420;-69
2024/01/16 00:47:37;;;;;;;13.10;7.45;;;;;;;-0.94;100.00;99566.47;7401255;19;20510;-70
2024/01/16 00:50:09;;;;;;;14.98;7.50;;;;;;;-0.96;100.00;99557.00;7401079;19;20028;-70
2024/01/16 00:52:37;;;;;;;15.75;7.63;;;;;;;-0.95;100.00;99561.31;7400714;19;20041;-70
2024/01/16 00:55:06;;;;;;;14.10;7.47;;;;;;;-0.95;100.00;99561.31;7401291;19;20414;-70
2024/01/16 00:57:35;;;;;;;14.68;8.30;;;;;;;-0.95;100.00;99561.31;7401257;19;20011;-69
2024/01/16 01:00:03;;;;;;;13.55;7.70;;;;;;;-0.95;100.00;99559.59;7401040;19;20074;-68
2024/01/16 01:02:32;;;;;;;13.23;7.45;;;;;;;-0.96;100.00;99563.03;7400834;19;20033;-69
2024/01/16 01:05:00;;;;;;;16.05;8.57;;;;;;;-0.96;100.00;99568.19;7400605;19;20023;-69
2024/01/16 01:07:31;;;;;;;13.18;7.68;;;;;;;-0.97;100.00;99563.88;7398523;19;20066;-69
2024/01/16 01:10:00;;;;;;;11.57;7.70;;;;;;;-0.96;100.00;99573.34;7400483;19;20082;-69
2024/01/16 01:12:28;;;;;;;14.05;8.30;;;;;;;-0.96;100.00;99567.31;7400214;19;20423;-69
2024/01/16 01:14:57;;;;;;;12.88;8.73;;;;;;;-0.96;100.00;99572.47;7400347;19;20011;-69
2024/01/16 01:17:25;;;;;;;11.60;8.40;;;;;;;-0.96;100.00;99570.75;7400246;19;20514;-68
2024/01/16 01:19:54;;;;;;;14.43;8.45;;;;;;;-0.95;100.00;99579.34;7400125;19;20015;-68
2024/01/16 01:22:22;;;;;;;17.65;8.30;;;;;;;-0.96;100.00;99575.91;7400495;19;20037;-69
2024/01/16 01:24:53;;;;;;;14.32;7.88;;;;;;;-0.95;100.00;99575.03;7399941;19;20546;-69
2024/01/16 01:27:22;;;;;;;11.35;7.78;;;;;;;-0.94;100.00;99581.91;7397887;19;20066;-68
2024/01/16 01:29:50;;;;;;;16.85;8.65;;;;;;;-0.92;100.00;99581.91;7399652;19;20078;-68
2024/01/16 01:32:19;;;;;;;12.60;8.60;;;;;;;-0.92;100.00;99594.78;7400160;19;20086;-69
2024/01/16 01:34:47;;;;;;;16.30;9.25;;;;;;;-0.94;100.00;99584.50;7397530;19;20070;-69
2024/01/16 01:37:15;;;;;;;17.75;8.80;;;;;;;-0.94;100.00;99589.63;7398246;19;20082;-68
2024/01/16 01:39:44;;;;;;;13.13;8.13;;;;;;;-0.93;100.00;99593.94;7399829;19;20082;-68
2024/01/16 01:42:15;;;;;;;11.77;8.25;;;;;;;-0.92;100.00;99587.94;7401030;19;20019;-68
2024/01/16 01:44:43;;;;;;;12.95;7.82;;;;;;;-0.91;100.00;99592.25;7397938;19;20085;-69
2024/01/16 01:47:12;;;;;;;13.63;7.90;;;;;;;-0.90;100.00;99588.78;7397822;19;20006;-68
2024/01/16 01:49:41;;;;;;;17.95;8.38;;;;;;;-0.89;100.00;99593.09;7399522;19;20077;-69
2024/01/16 01:52:10;;;;;;;13.68;8.23;;;;;;;-0.86;100.00;99599.97;7397113;19;20022;-69
2024/01/16 01:54:40;;;;;;;13.98;8.45;;;;;;;-0.87;100.00;99600.84;7397007;19;20011;-69
2024/01/16 01:57:11;;;;;;;12.30;7.95;;;;;;;-0.87;100.00;99609.44;7399680;19;20014;-70
2024/01/16 01:59:42;;;;;;;14.23;7.68;;;;;;;-0.88;100.00;99623.16;7399570;19;20011;-69
2024/01/16 02:02:11;;;;;;;14.57;7.63;;;;;;;-0.86;100.00;99616.31;7399510;19;20041;-70
2024/01/16 02:04:39;;;;;;;12.32;8.23;;;;;;;-0.85;100.00;99624.88;7396605;19;20027;-70
2024/01/16 02:07:08;;;;;;;14.13;8.05;;;;;;;-0.87;100.00;99618.88;7397133;19;20074;-68
2024/01/16 02:09:37;;;;;;;12.93;6.75;;;;;;;-0.87;100.00;99630.03;7398460;19;20017;-68
2024/01/16 02:12:07;;;;;;;13.00;6.40;;;;;;;-0.87;100.00;99636.91;7398418;19;20359;-68
2024/01/16 02:14:35;;;;;;;14.63;7.30;;;;;;;-0.88;100.00;99637.75;7397341;19;20014;-68
2024/01/16 02:17:06;;;;;;;6.75;5.90;;;;;;;-0.89;100.00;99646.34;7398157;19;20082;-69
2024/01/16 02:19:35;;;;;;;10.40;6.47;;;;;;;-0.88;100.00;99643.75;7398724;19;20019;-69
2024/01/16 02:22:09;;;;;;;9.05;6.32;;;;;;;-0.89;100.00;99644.59;7398441;19;20014;-69
2024/01/16 02:24:40;;;;;;;;;;;;;;;-0.90;100.00;99670.34;7397285;19;20078;-67
2024/01/16 02:27:08;;;;;;;7.47;4.60;;;;;;;-0.90;100.00;99660.91;7396202;19;20372;-65
2024/01/16 02:29:42;;;;;;;11.40;6.03;;;;;;;-0.83;100.00;99660.09;7398176;19;20015;-64
2024/01/16 02:32:19;;;;;;;9.38;5.60;;;;;;;-0.76;100.00;99668.72;7399144;19;20074;-69
2024/01/16 02:34:48;;;;;;;5.85;4.80;;;;;;;-0.76;100.00;99671.31;7396342;19;20027;-69
2024/01/16 02:37:16;;;;;;;7.65;5.03;;;;;;;-0.78;100.00;99677.28;7396499;19;20069;-69
2024/01/16 02:39:47;;;;;;;7.88;4.95;;;;;;;-0.82;100.00;99687.59;7397424;19;20023;-69
2024/01/16 02:42:16;;;;;;;7.32;4.68;;;;;;;-0.83;100.00;99703.88;7396957;19;20014;-70
2024/01/16 02:44:44;;;;;;;7.53;5.20;;;;;;;-0.86;100.00;99709.03;7395713;19;20010;-70
2024/01/16 02:47:12;;;;;;;6.63;4.40;;;;;;;-0.93;100.00;99717.53;7395645;19;20073;-69
2024/01/16 02:49:41;;;;;;;5.03;3.60;;;;;;;-0.99;100.00;99713.22;7397474;19;20018;-68
2024/01/16 02:52:09;;;;;;;6.13;3.67;;;;;;;-1.01;100.00;99717.47;7397160;19;20027;-69
2024/01/16 02:54:38;;;;;;;4.55;2.90;;;;;;;-1.02;100.00;99730.34;7395502;19;20018;-68
2024/01/16 02:57:09;;;;;;;5.10;2.95;;;;;;;-1.04;100.00;99726.88;7395650;19;20018;-69
2024/01/16 02:59:38;;;;;;;3.63;2.80;;;;;;;-1.05;100.00;99733.75;7395061;19;20010;-68
2024/01/16 03:02:08;;;;;;;4.13;2.53;;;;;;;-1.07;100.00;99735.44;7400771;19;20082;-69
2024/01/16 03:04:36;;;;;;;4.78;3.00;;;;;;;-1.07;100.00;99742.31;7405289;19;20017;-68
2024/01/16 03:07:05;;;;;;;3.92;2.40;;;;;;;-1.07;100.00;99750.88;7396327;19;20070;-68
2024/01/16 03:09:33;;;;;;;4.22;2.67;;;;;;;-1.09;100.00;99744.84;7396553;19;20116;-69
2024/01/16 03:12:02;;;;;;;3.22;2.50;;;;;;;-1.09;100.00;99762.88;7398009;19;20023;-69
2024/01/16 03:14:35;;;;;;;3.95;2.50;;;;;;;-1.08;100.00;99768.91;7396113;19;20481;-69
2024/01/16 03:17:04;;;;;;;2.83;2.50;;;;;;;-1.08;100.00;99774.06;7397350;19;20078;-69
2024/01/16 03:19:32;;;;;;;4.13;2.70;;;;;;;-1.08;100.00;99767.19;7396380;19;20090;-69
2024/01/16 03:22:01;;;;;;;3.78;2.90;;;;;;;-1.07;100.00;99773.22;7396115;19;20014;-69
2024/01/16 03:24:29;;;;;;;3.55;2.38;;;;;;;-1.08;100.00;99777.47;7395276;19;20099;-69
2024/01/16 03:26:58;;;;;;;3.08;2.58;;;;;;;-1.09;100.00;99774.91;7395149;19;20565;-70
2024/01/16 03:29:27;;;;;;;4.47;2.90;;;;;;;-1.08;100.00;99790.34;7397083;19;20073;-69
2024/01/16 03:31:58;;;;;;;4.63;2.97;;;;;;;-1.08;100.00;99794.66;7396979;19;20019;-69
2024/01/16 03:34:26;;;;;;;4.55;3.28;;;;;;;-1.11;100.00;99789.44;7394128;19;20086;-69
2024/01/16 03:36:55;;;;;;;5.28;3.00;;;;;;;-1.16;100.00;99790.28;7395079;19;20027;-70
2024/01/16 03:39:23;;;;;;;4.90;2.70;;;;;;;-1.17;100.00;99800.56;7394133;19;20023;-70
2024/01/16 03:41:52;;;;;;;4.78;2.78;;;;;;;-1.20;100.00;99801.38;7395460;19;20015;-70
2024/01/16 03:44:20;;;;;;;4.18;2.38;;;;;;;-1.24;100.00;99803.91;7394493;19;20028;-70
2024/01/16 03:46:49;;;;;;;4.63;2.45;;;;;;;-1.23;100.00;99801.34;7395149;19;20078;-70
2024/01/16 03:49:20;;;;;;;4.05;2.75;;;;;;;-1.25;100.00;99802.16;7395611;19;20082;-70
2024/01/16 03:51:48;;;;;;;3.17;2.80;;;;;;;-1.26;100.00;99800.44;7395701;19;20026;-70
2024/01/16 03:54:17;;;;;;;4.50;2.75;;;;;;;-1.25;100.00;99805.63;7391304;19;20017;-70
2024/01/16 03:56:46;;;;;;;4.00;3.08;;;;;;;-1.27;100.00;99802.16;7394864;19;20082;-70
2024/01/16 03:59:15;;;;;;;4.07;2.92;;;;;;;-1.27;100.00;99804.72;7395237;19;20010;-70
2024/01/16 04:01:44;;;;;;;3.88;2.60;;;;;;;-1.27;100.00;99799.59;7394678;19;20485;-70
2024/01/16 04:04:12;;;;;;;4.35;2.72;;;;;;;-1.27;100.00;99802.16;7393264;19;20517;-70
2024/01/16 04:06:43;;;;;;;5.18;2.40;;;;;;;-1.27;100.00;99809.03;7394144;19;20078;-69
2024/01/16 04:09:13;;;;;;;3.45;2.33;;;;;;;-1.28;100.00;99805.56;7394511;19;20024;-70
2024/01/16 04:11:41;;;;;;;3.95;3.03;;;;;;;-1.29;100.00;99814.13;7394308;19;20033;-70
2024/01/16 04:14:10;;;;;;;3.63;2.78;;;;;;;-1.32;100.00;99811.53;7393324;19;20083;-70
2024/01/16 04:16:38;;;;;;;4.22;3.15;;;;;;;-1.34;100.00;99816.69;7394692;19;20019;-70
2024/01/16 04:19:07;;;;;;;5.53;4.70;;;;;;;-1.36;100.00;99820.94;7394454;19;20074;-70
2024/01/16 04:21:35;;;;;;;8.25;4.15;;;;;;;-1.38;100.00;99826.91;7394787;19;20026;-70
2024/01/16 04:24:07;;;;;;;5.47;3.47;;;;;;;-1.41;100.00;99822.59;7393230;19;20025;-70
2024/01/16 04:26:37;;;;;;;3.78;3.35;;;;;;;-1.39;100.00;99827.75;7394053;19;20034;-74
2024/01/16 04:29:06;;;;;;;6.53;4.95;;;;;;;-1.40;100.00;99834.63;7394994;19;20082;-70
2024/01/16 04:31:41;;;;;;;3.70;3.25;;;;;;;-1.41;100.00;99826.88;7394055;19;20011;-70
2024/01/16 04:34:09;;;;;;;5.30;3.33;;;;;;;-1.43;100.00;99833.72;7392396;19;20368;-70
2024/01/16 04:36:38;;;;;;;5.90;2.95;;;;;;;-1.44;100.00;99834.53;7393637;19;20022;-70
2024/01/16 04:39:09;;;;;;;5.20;3.00;;;;;;;-1.48;100.00;99841.34;7394723;19;20015;-69
2024/01/16 04:41:37;;;;;;;5.65;3.65;;;;;;;-1.49;100.00;99844.81;7393440;19;20010;-70
2024/01/16 04:44:06;;;;;;;3.05;2.72;;;;;;;-1.49;100.00;99837.94;7391844;19;20482;-70
2024/01/16 04:46:35;;;;;;;4.65;3.42;;;;;;;-1.49;100.00;99845.66;7393501;19;20076;-69
2024/01/16 04:49:03;;;;;;;5.03;3.67;;;;;;;-1.50;100.00;99849.06;7391449;19;20505;-70
2024/01/16 04:51:31;;;;;;;5.03;3.28;;;;;;;-1.51;100.00;99852.47;7393799;19;20028;-69
2024/01/16 04:54:00;;;;;;;4.50;3.15;;;;;;;-1.55;100.00;99855.84;7392491;19;20090;-69
2024/01/16 04:56:31;;;;;;;5.50;3.42;;;;;;;-1.57;100.00;99865.25;7393993;19;20070;-69
2024/01/16 04:59:00;;;;;;;4.22;3.15;;;;;;;-1.56;100.00;99854.13;7394032;19;20018;-69
2024/01/16 05:01:28;;;;;;;4.38;3.50;;;;;;;-1.55;100.00;99857.59;7393384;19;20010;-69
2024/01/16 05:03:57;;;;;;;4.18;3.08;;;;;;;-1.54;100.00;99854.13;7392177;19;20019;-69
2024/01/16 05:06:25;;;;;;;5.72;3.10;;;;;;;-1.53;100.00;99866.16;7400339;19;20066;-69
2024/01/16 05:08:54;;;;;;;7.45;3.80;;;;;;;-1.53;100.00;99867.03;7398438;19;20011;-69
2024/01/16 05:11:22;;;;;;;5.78;3.72;;;;;;;-1.52;100.00;99873.03;7400733;19;20010;-69
2024/01/16 05:13:58;;;;;;;6.43;4.10;;;;;;;-1.55;100.00;99873.88;7398833;19;20015;-69
2024/01/16 05:16:26;;;;;;;6.38;3.47;;;;;;;-1.53;100.00;99868.72;7399541;19;20007;-69
2024/01/16 05:18:55;;;;;;;6.35;3.72;;;;;;;-1.55;100.00;99881.59;7397076;19;20011;-69
2024/01/16 05:21:30;;;;;;;3.78;3.00;;;;;;;-1.56;100.00;99879.84;7399964;19;20128;-69
2024/01/16 05:23:58;;;;;;;4.55;2.97;;;;;;;-1.56;100.00;99882.41;7397881;19;20562;-69
2024/01/16 05:26:27;;;;;;;7.10;3.55;;;;;;;-1.56;100.00;99890.13;7400742;19;20016;-69
2024/01/16 05:28:58;;;;;;;7.07;3.97;;;;;;;-1.60;100.00;99887.53;7397713;19;20092;-69
2024/01/16 05:31:26;;;;;;;6.28;4.30;;;;;;;-1.62;100.00;99892.63;7397776;19;20098;-69
2024/01/16 05:33:55;;;;;;;7.07;4.10;;;;;;;-1.63;100.00;99885.78;7396571;19;20477;-69
2024/01/16 05:36:24;;;;;;;9.30;3.80;;;;;;;-1.66;100.00;99886.56;7399047;19;20006;-69
2024/01/16 05:38:53;;;;;;;10.63;4.10;;;;;;;-1.67;100.00;99886.56;7396933;19;20473;-69
2024/01/16 05:41:21;;;;;;;6.07;3.92;;;;;;;-1.69;100.00;99888.25;7399405;19;20074;-69
2024/01/16 05:43:50;;;;;;;6.43;4.05;;;;;;;-1.71;100.00;99903.63;7397837;19;20022;-70
2024/01/16 05:46:21;;;;;;;9.10;3.85;;;;;;;-1.75;100.00;99890.72;7398801;19;20487;-69
2024/01/16 05:48:49;;;;;;;5.43;3.50;;;;;;;-1.75;100.00;99898.44;7396896;19;20015;-69
2024/01/16 05:51:18;;;;;;;8.07;4.03;;;;;;;-1.79;100.00;99902.69;7398868;19;20073;-69
2024/01/16 05:53:46;;;;;;;6.20;3.90;;;;;;;-1.82;100.00;99900.94;7395912;19;20006;-68
2024/01/16 05:56:15;;;;;;;4.70;4.00;;;;;;;-1.85;100.00;99916.28;7396391;19;20078;-69
2024/01/16 05:58:43;;;;;;;6.95;4.13;;;;;;;-1.88;100.00;99923.97;7398630;19;20022;-69
2024/01/16 06:01:13;;;;;;;6.47;3.78;;;;;;;-1.92;100.00;99931.59;7397035;19;20372;-69
2024/01/16 06:03:46;;;;;;;6.68;3.53;;;;;;;-1.96;100.00;99935.81;7397073;19;20030;-69
2024/01/16 06:06:15;;;;;;;7.30;3.93;;;;;;;-2.00;100.00;99934.06;7395931;19;20031;-69
2024/01/16 06:08:43;;;;;;;5.80;3.97;;;;;;;-2.04;100.00;99935.69;7395389;19;20082;-69
2024/01/16 06:11:12;;;;;;;6.30;3.80;;;;;;;-2.04;100.00;99935.69;7397403;19;20027;-70
2024/01/16 06:13:40;;;;;;;4.60;3.47;;;;;;;-2.04;100.00;99945.13;7396005;19;20018;-70
2024/01/16 06:16:10;;;;;;;5.95;4.20;;;;;;;-2.06;100.00;99951.94;7395269;19;20021;-68
2024/01/16 06:18:38;;;;;;;8.10;4.18;;;;;;;-2.09;100.00;99952.75;7397941;19;20014;-68
2024/01/16 06:21:11;;;;;;;7.00;4.38;;;;;;;-2.07;100.00;99953.66;7397058;19;20135;-69
2024/01/16 06:23:40;;;;;;;9.00;4.87;;;;;;;-2.05;100.00;99969.09;7396024;19;20015;-68
2024/01/16 06:26:10;;;;;;;10.50;5.47;;;;;;;-2.05;100.00;99979.38;7394483;19;20014;-69
2024/01/16 06:28:40;;;;;;;8.43;5.05;;;;;;;-2.06;100.00;99981.09;7395719;19;20051;-68
2024/01/16 06:31:08;;;;;;;9.82;4.78;;;;;;;-2.04;100.00;99981.13;7397122;19;20015;-71
2024/01/16 06:33:37;;;;;;;10.60;5.25;;;;;;;-2.03;100.00;99986.28;7395885;19;20484;-69
2024/01/16 06:36:06;;;;;;;6.95;4.65;;;;;;;-2.03;100.00;99981.16;7394915;19;20372;-68
2024/01/16 06:38:37;;;;;;;9.77;4.93;;;;;;;-2.01;100.00;99991.44;7393458;19;20329;-69
2024/01/16 06:41:06;;;;;;;8.30;5.10;;;;;;;-2.02;100.00;99987.13;7395177;19;20010;-69
2024/01/16 06:43:35;;;;;;;7.35;4.85;;;;;;;-2.02;100.00;99987.13;7395623;19;20015;-69
2024/01/16 06:46:03;;;;;;;7.60;5.00;;;;;;;-1.99;100.00;99992.34;7397109;19;20078;-69
2024/01/16 06:48:32;;;;;;;6.05;4.40;;;;;;;-1.99;100.00;99987.22;7395667;19;20029;-69
2024/01/16 06:51:01;;;;;;;7.78;5.60;;;;;;;-2.00;100.00;99991.50;7396733;19;20006;-69
2024/01/16 06:53:29;;;;;;;9.40;4.68;;;;;;;-2.00;100.00;99988.94;7394676;19;20376;-69
2024/01/16 06:56:00;;;;;;;6.22;4.55;;;;;;;-1.99;100.00;99997.50;7396005;19;20431;-69
2024/01/16 06:58:29;;;;;;;8.90;4.43;;;;;;;-2.00;100.00;100000.91;7395496;19;20018;-69
2024/01/16 07:00:58;;;;;;;10.10;5.40;;;;;;;-2.00;100.00;100006.03;7397443;19;20070;-69
2024/01/16 07:03:26;;;;;;;9.55;5.80;;;;;;;-2.01;100.00;100002.63;7396131;19;20018;-69
2024/01/16 07:05:55;;;;;;;7.30;5.55;;;;;;;-2.00;100.00;100006.03;7394790;19;20085;-69
2024/01/16 07:08:23;;;;;;;6.68;4.80;;;;;;;-2.03;100.00;100009.41;7395166;19;20023;-69
2024/01/16 07:10:52;;;;;;;7.28;4.90;;;;;;;-2.04;100.00;100001.69;7396337;19;20014;-69
2024/01/16 07:13:23;;;;;;;8.05;5.18;;;;;;;-2.04;100.00;99999.13;7395477;19;20028;-69
2024/01/16 07:15:51;;;;;;;7.05;4.68;;;;;;;-2.05;100.00;100010.22;7396800;19;20078;-69
2024/01/16 07:18:20;;;;;;;8.73;4.53;;;;;;;-2.04;100.00;100019.69;7394792;19;20014;-69
2024/01/16 07:20:49;;;;;;;5.90;4.55;;;;;;;-2.04;100.00;100024.81;7396587;19;20366;-69
2024/01/16 07:23:17;;;;;;;7.15;4.90;;;;;;;-2.04;100.00;100024.81;7394108;19;20081;-69
2024/01/16 07:25:46;;;;;;;8.27;4.40;;;;;;;-2.03;100.00;100036.84;7394655;19;20010;-68
2024/01/16 07:28:14;;;;;;;4.97;3.95;;;;;;;-2.03;100.00;100031.69;7394955;19;20023;-69
2024/01/16 07:30:45;;;;;;;6.10;4.38;;;;;;;-2.02;100.00;100043.69;7395482;19;20017;-69
2024/01/16 07:33:14;;;;;;;7.50;3.67;;;;;;;-2.00;100.00;100042.03;7395363;19;20014;-68
2024/01/16 07:35:47;;;;;;;5.93;4.10;;;;;;;-1.98;100.00;100054.06;7395799;19;20050;-68
2024/01/16 07:38:29;;;;;;;5.40;4.07;;;;;;;-1.97;100.00;100052.38;7392719;19;20374;-68
2024/01/16 07:40:57;;;;;;;7.30;4.45;;;;;;;-1.95;100.00;100055.81;7395601;19;20090;-68
2024/01/16 07:43:26;;;;;;;8.57;5.50;;;;;;;-1.93;100.00;100050.72;7393644;19;20078;-68
2024/01/16 07:45:58;;;;;;;5.43;3.80;;;;;;;-1.90;100.00;100053.34;7395185;19;20078;-69
2024/01/16 07:48:26;;;;;;;9.55;5.70;;;;;;;-1.88;100.00;100047.41;7395910;19;20082;-68
2024/01/16 07:50:55;;;;;;;11.50;6.47;;;;;;;-1.85;100.00;100060.28;7394260;19;20010;-68
2024/01/16 07:53:23;;;;;;;14.23;7.90;;;;;;;-1.81;100.00;100054.38;7394238;19;20368;-68
2024/01/16 07:55:53;;;;;;;12.93;7.45;;;;;;;-1.80;100.00;100060.38;7395333;19;20018;-67
2024/01/16 07:58:23;;;;;;;11.57;6.72;;;;;;;-1.76;100.00;100062.16;7395549;19;20006;-68
2024/01/16 08:00:51;;;;;;;8.32;5.40;;;;;;;-1.72;100.00;100063.09;7392639;19;20010;-68
2024/01/16 08:03:22;;;;;;;9.73;5.93;;;;;;;-1.68;100.00;100075.16;7393803;19;20019;-68
2024/01/16 08:05:51;;;;;;;8.98;5.70;;;;;;;-1.66;100.00;100081.19;7395211;19;20070;-68
2024/01/16 08:08:19;;;;;;;6.88;4.07;;;;;;;-1.64;100.00;100082.09;7393563;19;20498;-68
2024/01/16 08:10:48;;;;;;;6.30;4.00;;;;;;;-1.64;100.00;100075.25;7392949;19;20091;-69
2024/01/16 08:13:16;;;;;;;5.95;4.10;;;;;;;-1.61;100.00;100086.44;7392697;19;20482;-68
2024/01/16 08:15:45;;;;;;;7.30;3.70;;;;;;;-1.60;100.00;100083.88;7393770;19;20074;-69
2024/01/16 08:18:15;;;;;;;6.70;3.60;;;;;;;-1.57;100.00;100083.06;7394288;19;20011;-68
2024/01/16 08:20:44;;;;;;;7.28;3.72;;;;;;;-1.54;100.00;100088.25;7394458;19;20082;-68
2024/01/16 08:23:12;;;;;;;6.68;4.03;;;;;;;-1.51;100.00;100090.88;7393613;19;20025;-70
2024/01/16 08:25:40;;;;;;;7.97;4.38;;;;;;;-1.49;100.00;100097.78;7393641;19;20011;-68
2024/01/16 08:28:09;;;;;;;9.32;5.68;;;;;;;-1.48;100.00;100096.97;7393799;19;20078;-68
2024/01/16 08:30:37;;;;;;;11.75;7.88;;;;;;;-1.46;100.00;100094.41;7393707;19;20003;-68
2024/01/16 08:33:13;;;;;;;10.88;7.45;;;;;;;-1.43;100.00;100098.72;7391685;19;20078;-68
2024/01/16 08:35:41;;;;;;;7.40;5.22;;;;;;;-1.42;100.00;100098.75;7391676;19;20011;-69
2024/01/16 08:38:12;;;;;;;10.85;7.28;;;;;;;-1.38;100.00;100104.81;7392852;19;20010;-68
2024/01/16 08:41:03;;;;;;;6.38;4.13;;;;;;;-1.35;100.00;100099.75;7400775;19;20021;-68
2024/01/16 08:43:31;;;;;;;6.22;3.35;;;;;;;-1.31;100.00;100114.38;7400097;19;20015;-68
2024/01/16 08:46:00;;;;;;;6.68;4.38;;;;;;;-1.28;100.00;100108.41;7398001;19;20478;-68
2024/01/16 08:48:28;;;;;;;8.55;4.63;;;;;;;-1.25;100.00;100103.31;7400357;19;20014;-69
2024/01/16 08:50:57;;;;;;;9.57;4.65;;;;;;;-1.23;100.00;100099.91;7401181;19;20092;-68
2024/01/16 08:53:28;;;;;;;7.20;4.00;;;;;;;-1.21;100.00;100100.81;7397820;19;20018;-68
2024/01/16 08:55:56;;;;;;;6.78;4.70;;;;;;;-1.19;100.00;100106.88;7401053;19;20100;-69
2024/01/16 08:58:25;;;;;;;9.43;5.55;;;;;;;-1.16;100.00;100106.91;7400949;19;20019;-69
2024/01/16 09:00:53;;;;;;;8.05;4.60;;;;;;;-1.12;100.00;100106.97;7400116;19;20509;-68
2024/01/16 09:03:21;;;;;;;8.38;3.90;;;;;;;-1.10;100.00;100110.41;7398935;19;20031;-69
2024/01/16 09:05:50;;;;;;;11.38;5.35;;;;;;;-1.07;100.00;100107.91;7398211;19;20086;-69
2024/01/16 09:08:18;;;;;;;8.48;4.60;;;;;;;-1.05;100.00;100114.81;7397332;19;20510;-69
2024/01/16 09:10:50;;;;;;;8.77;4.70;;;;;;;-1.01;100.00;100120.84;7398035;19;20074;-68
2024/01/16 09:13:20;;;;;;;7.53;4.75;;;;;;;-0.96;100.00;100123.50;7397919;19;20330;-69
2024/01/16 09:15:48;;;;;;;7.25;4.97;;;;;;;-0.94;100.00;100130.41;7400919;19;20561;-69
2024/01/16 09:18:17;;;;;;;6.18;4.93;;;;;;;-0.91;100.00;100124.44;7400008;19;20018;-68
2024/01/16 09:20:46;;;;;;;9.10;5.20;;;;;;;-0.88;100.00;100133.06;7397654;19;20074;-69
2024/01/16 09:23:15;;;;;;;12.85;6.70;;;;;;;-0.87;100.00;100132.25;7396326;19;20019;-68
2024/01/16 09:25:43;;;;;;;19.15;10.15;;;;;;;-0.86;100.00;100128.81;7400040;19;20009;-68
2024/01/16 09:28:15;;;;;;;10.98;6.95;;;;;;;-0.85;100.00;100138.28;7399717;19;20048;-69
2024/01/16 09:30:45;;;;;;;7.15;5.03;;;;;;;-0.83;100.00;100131.44;7399795;19;20474;-68
2024/01/16 09:33:13;;;;;;;13.68;5.25;;;;;;;-0.79;100.00;100137.50;7398206;19;20477;-69
2024/01/16 09:35:42;;;;;;;10.00;6.43;;;;;;;-0.78;100.00;100138.34;7399599;19;20102;-68
2024/01/16 09:38:17;;;;;;;8.43;5.30;;;;;;;-0.76;100.00;100137.53;7398440;19;20017;-69
2024/01/16 09:40:52;;;;;;;11.18;5.30;;;;;;;-0.72;100.00;100139.34;7399790;19;20101;-69
2024/01/16 09:43:24;;;;;;;11.50;5.53;;;;;;;-0.70;100.00;100136.78;7398509;19;20018;-69
2024/01/16 09:45:54;;;;;;;11.73;5.30;;;;;;;-0.69;100.00;100131.63;7399941;19;20035;-69
2024/01/16 09:48:23;;;;;;;8.98;6.35;;;;;;;-0.67;100.00;100142.84;7398913;19;20537;-69
2024/01/16 09:50:52;;;;;;;11.27;5.47;;;;;;;-0.68;100.00;100138.53;7395971;19;20541;-69
2024/01/16 09:53:20;;;;;;;8.10;4.97;;;;;;;-0.67;100.00;100148.00;7398053;19;20034;-68
2024/01/16 09:55:52;;;;;;;10.10;4.80;;;;;;;-0.66;100.00;100146.28;7396063;19;20369;-69
2024/01/16 09:58:23;;;;;;;10.80;5.18;;;;;;;-0.66;100.00;100148.84;7399332;19;20073;-68
2024/01/16 10:00:53;;;;;;;15.63;6.07;;;;;;;-0.66;100.00;100148.84;7396120;19;20419;-69
2024/01/16 10:03:23;;;;;;;15.02;5.80;;;;;;;-0.64;100.00;100154.00;7397676;19;20377;-68
2024/01/16 10:05:52;;;;;;;13.80;5.20;;;;;;;-0.65;100.00;100155.75;7398596;19;20078;-68
2024/01/16 10:08:21;;;;;;;12.45;5.50;;;;;;;-0.66;100.00;100159.16;7398126;19;20011;-69
2024/01/16 10:10:50;;;;;;;8.27;4.80;;;;;;;-0.62;100.00;100158.38;7398124;19;20075;-69
2024/01/16 10:13:19;;;;;;;11.93;6.10;;;;;;;-0.63;100.00;100160.91;7396886;19;20477;-70
2024/01/16 10:15:52;;;;;;;14.13;6.38;;;;;;;-0.60;100.00;100164.41;7397915;19;20086;-69
2024/01/16 10:18:29;;;;;;;13.85;6.80;;;;;;;-0.58;100.00;100157.56;7399019;19;20371;-70
2024/01/16 10:20:58;;;;;;;17.35;7.15;;;;;;;-0.56;100.00;100153.28;7398696;19;20373;-69
2024/01/16 10:23:27;;;;;;;15.82;7.05;;;;;;;-0.55;100.00;100162.75;7396062;19;20028;-70
2024/01/16 10:26:11;;;;;;;10.18;5.18;;;;;;;-0.54;100.00;100153.31;7397806;19;20493;-69
2024/01/16 10:28:41;;;;;;;13.18;7.05;;;;;;;-0.52;100.00;100159.34;7397041;19;20023;-70
2024/01/16 10:31:14;;;;;;;10.60;5.28;;;;;;;-0.50;100.00;100155.09;7398250;19;20074;-70
2024/01/16 10:33:42;;;;;;;18.23;9.70;;;;;;;-0.48;100.00;100156.00;7396993;19;20037;-70
2024/01/16 10:36:12;;;;;;;13.48;5.95;;;;;;;-0.45;100.00;100160.31;7398119;19;20019;-71
2024/01/16 10:38:43;;;;;;;10.05;5.35;;;;;;;-0.44;100.00;100162.91;7396237;19;20015;-65
2024/01/16 10:41:13;;;;;;;14.52;6.85;;;;;;;-0.41;100.00;100155.22;7397167;19;20010;-66
2024/01/16 10:43:44;;;;;;;13.68;6.82;;;;;;;-0.39;100.00;100150.94;7396112;19;20014;-65
2024/01/16 10:46:16;;;;;;;14.85;6.32;;;;;;;-0.36;100.00;100157.84;7396748;19;20495;-67
2024/01/16 10:48:46;;;;;;;11.00;5.18;;;;;;;-0.32;100.00;100151.88;7397451;19;20028;-65
2024/01/16 10:51:17;;;;;;;10.38;5.20;;;;;;;-0.31;100.00;100161.38;7396714;19;20027;-65
2024/01/16 10:53:48;;;;;;;15.52;6.32;;;;;;;-0.30;100.00;100150.22;7395569;19;20022;-65
2024/01/16 10:56:18;;;;;;;13.30;5.72;;;;;;;-0.29;100.00;100149.38;7397027;19;20014;-67
2024/01/16 10:58:52;;;;;;;13.88;5.72;;;;;;;-0.27;100.00;100146.81;7395781;19;20010;-64
2024/01/16 11:01:23;;;;;;;15.65;6.70;;;;;;;-0.27;100.00;100147.66;7395576;19;20010;-66
2024/01/16 11:03:54;;;;;;;12.70;6.18;;;;;;;-0.26;100.00;100151.97;7393837;19;20371;-67
2024/01/16 11:06:22;;;;;;;15.25;6.82;;;;;;;-0.23;100.00;100149.44;7397604;19;20074;-65
2024/01/16 11:08:51;;;;;;;9.18;5.55;;;;;;;-0.22;100.00;100151.16;7393932;19;20086;-65
2024/01/16 11:11:20;;;;;;;15.38;5.53;;;;;;;-0.22;100.00;100147.72;7396015;19;20023;-65
2024/01/16 11:13:49;;;;;;;12.88;5.13;;;;;;;-0.20;100.00;100151.19;7394703;19;20014;-66
2024/01/16 11:16:18;;;;;;;15.98;5.50;;;;;;;-0.18;100.00;100149.50;7395451;19;20011;-67
2024/01/16 11:18:49;;;;;;;10.88;4.38;;;;;;;-0.17;100.00;100143.50;7395197;19;20482;-70
2024/01/16 11:21:26;;;;;;;8.52;4.53;;;;;;;-0.16;100.00;100147.81;7396168;19;20011;-67
2024/01/16 11:23:54;;;;;;;13.23;4.55;;;;;;;-0.12;100.00;100147.00;7393986;19;20019;-67
2024/01/16 11:26:32;;;;;;;13.20;4.72;;;;;;;-0.09;100.00;100146.16;7395929;19;20031;-67
2024/01/16 11:29:01;;;;;;;7.38;4.50;;;;;;;-0.05;100.00;100153.06;7394437;19;20018;-67